sensor_id;sensor_type;location;lat;lon;timestamp;pressure;altitude;pressure_sealevel;temperature;humidity
6938;BME280;40040;42.706;23.372;2023-03-20T00:00:24;145474.53;;;5.25;100.00
6938;BME280;40040;42.706;23.372;2023-03-20T00:02:53;145462.25;;;5.20;100.00
6938;BME280;40040;42.706;23.372;2023-03-20T00:05:22;145442.63;;;5.12;100.00
6938;BME280;40040;42.706;23.372;2023-03-20T00:07:50;145443.88;;;5.12;100.00
6938;BME280;40040;42.706;23.372;2023-03-20T00:10:18;145445.06;;;5.13;100.00
6938;BME280;40040;42.706;23.372;2023-03-20T00:12:47;145430.34;;;5.07;100.00
6938;BME280;40040;42.706;23.372;2023-03-20T00:15:23;145420.50;;;5.03;100.00
6938;BME280;40040;42.706;23.372;2023-03-20T00:17:51;145364.00;;;4.80;100.00
6938;BME280;40040;42.706;23.372;2023-03-20T00:20:19;145415.59;;;5.01;100.00
6938;BME280;40040;42.706;23.372;2023-03-20T00:22:47;145403.31;;;4.96;100.00
6938;BME280;40040;42.706;23.372;2023-03-20T00:25:14;145307.56;;;4.56;100.00
6938;BME280;40040;42.706;23.372;2023-03-20T00:27:42;145348.06;;;4.73;100.00
6938;BME280;40040;42.706;23.372;2023-03-20T00:30:22;145324.75;;;4.64;100.00
6938;BME280;40040;42.706;23.372;2023-03-20T00:32:51;145344.38;;;4.72;100.00
6938;BME280;40040;42.706;23.372;2023-03-20T00:35:23;145361.56;;;4.79;100.00
6938;BME280;40040;42.706;23.372;2023-03-20T00:37:51;145355.41;;;4.76;100.00
6938;BME280;40040;42.706;23.372;2023-03-20T00:40:18;145337.03;;;4.69;100.00
6938;BME280;40040;42.706;23.372;2023-03-20T00:42:48;145349.28;;;4.74;100.00
6938;BME280;40040;42.706;23.372;2023-03-20T00:45:17;145338.22;;;4.69;100.00
6938;BME280;40040;42.706;23.372;2023-03-20T00:47:49;145327.19;;;4.65;100.00
6938;BME280;40040;42.706;23.372;2023-03-20T00:50:19;145339.47;;;4.70;100.00
6938;BME280;40040;42.706;23.372;2023-03-20T00:52:47;145327.19;;;4.65;100.00
6938;BME280;40040;42.706;23.372;2023-03-20T00:55:14;145314.91;;;4.59;100.00
6938;BME280;40040;42.706;23.372;2023-03-20T00:57:43;145292.81;;;4.50;100.00
6938;BME280;40040;42.706;23.372;2023-03-20T01:00:23;145290.38;;;4.49;100.00
6938;BME280;40040;42.706;23.372;2023-03-20T01:02:54;145274.38;;;4.43;100.00
6938;BME280;40040;42.706;23.372;2023-03-20T01:05:23;145265.78;;;4.39;100.00
6938;BME280;40040;42.706;23.372;2023-03-20T01:07:50;145172.50;;;4.01;100.00
6938;BME280;40040;42.706;23.372;2023-03-20T01:10:17;145248.59;;;4.32;100.00
6938;BME280;40040;42.706;23.372;2023-03-20T01:12:45;145214.28;;;4.18;100.00
6938;BME280;40040;42.706;23.372;2023-03-20T01:15:19;145209.38;;;4.16;100.00
6938;BME280;40040;42.706;23.372;2023-03-20T01:17:46;145175.00;;;4.02;100.00
6938;BME280;40040;42.706;23.372;2023-03-20T01:20:16;145186.03;;;4.07;100.00
6938;BME280;40040;42.706;23.372;2023-03-20T01:22:44;145167.59;;;3.99;100.00
6938;BME280;40040;42.706;23.372;2023-03-20T01:25:11;145157.81;;;3.95;100.00
6938;BME280;40040;42.706;23.372;2023-03-20T01:27:38;145168.84;;;4.00;100.00
6938;BME280;40040;42.706;23.372;2023-03-20T01:30:16;145138.16;;;3.87;100.00
6938;BME280;40040;42.706;23.372;2023-03-20T01:32:43;145094.03;;;3.69;100.00
6938;BME280;40040;42.706;23.372;2023-03-20T01:35:17;145140.63;;;3.88;100.00
6938;BME280;40040;42.706;23.372;2023-03-20T01:37:44;145125.88;;;3.82;100.00
6938;BME280;40040;42.706;23.372;2023-03-20T01:40:23;145111.19;;;3.76;100.00
6938;BME280;40040;42.706;23.372;2023-03-20T01:42:52;145108.72;;;3.75;100.00
6938;BME280;40040;42.706;23.372;2023-03-20T01:45:22;145112.38;;;3.77;100.00
6938;BME280;40040;42.706;23.372;2023-03-20T01:47:51;145096.44;;;3.70;100.00
6938;BME280;40040;42.706;23.372;2023-03-20T01:50:23;145100.13;;;3.72;100.00
6938;BME280;40040;42.706;23.372;2023-03-20T01:52:54;145022.84;;;3.40;100.00
6938;BME280;40040;42.706;23.372;2023-03-20T01:55:24;145069.50;;;3.59;100.00
6938;BME280;40040;42.706;23.372;2023-03-20T01:57:51;145068.25;;;3.59;100.00
6938;BME280;40040;42.706;23.372;2023-03-20T02:00:20;145086.63;;;3.66;100.00
6938;BME280;40040;42.706;23.372;2023-03-20T02:02:48;145084.19;;;3.65;100.00
6938;BME280;40040;42.706;23.372;2023-03-20T02:05:18;145090.34;;;3.68;100.00
6938;BME280;40040;42.706;23.372;2023-03-20T02:07:53;145035.13;;;3.45;100.00
6938;BME280;40040;42.706;23.372;2023-03-20T02:10:21;145076.84;;;3.62;100.00
6938;BME280;40040;42.706;23.372;2023-03-20T02:12:48;145037.56;;;3.46;100.00
6938;BME280;40040;42.706;23.372;2023-03-20T02:15:16;145044.91;;;3.49;100.00
6938;BME280;40040;42.706;23.372;2023-03-20T02:17:43;145020.41;;;3.39;100.00
6938;BME280;40040;42.706;23.372;2023-03-20T02:20:19;145057.19;;;3.54;100.00
6938;BME280;40040;42.706;23.372;2023-03-20T02:23:09;145065.78;;;3.58;100.00
6938;BME280;40040;42.706;23.372;2023-03-20T02:38:24;145044.91;;;3.49;100.00
6938;BME280;40040;42.706;23.372;2023-03-20T02:40:59;145047.41;;;3.50;100.00
6938;BME280;40040;42.706;23.372;2023-03-20T02:43:35;145044.91;;;3.49;100.00
6938;BME280;40040;42.706;23.372;2023-03-20T02:46:10;145022.84;;;3.40;100.00
6938;BME280;40040;42.706;23.372;2023-03-20T02:48:45;145009.38;;;3.34;100.00
6938;BME280;40040;42.706;23.372;2023-03-20T02:51:17;144990.97;;;3.27;100.00
6938;BME280;40040;42.706;23.372;2023-03-20T02:53:51;144955.41;;;3.12;100.00
6938;BME280;40040;42.706;23.372;2023-03-20T02:56:24;144962.78;;;3.15;100.00
6938;BME280;40040;42.706;23.372;2023-03-20T02:59:01;144968.88;;;3.18;100.00
6938;BME280;40040;42.706;23.372;2023-03-20T03:01:31;144927.22;;;3.01;100.00
6938;BME280;40040;42.706;23.372;2023-03-20T03:04:03;144919.88;;;2.98;100.00
6938;BME280;40040;42.706;23.372;2023-03-20T03:06:35;144932.13;;;3.03;100.00
6938;BME280;40040;42.706;23.372;2023-03-20T03:09:06;144895.31;;;2.88;100.00
6938;BME280;40040;42.706;23.372;2023-03-20T03:11:40;144890.44;;;2.86;100.00
6938;BME280;40040;42.706;23.372;2023-03-20T03:14:13;144900.22;;;2.90;100.00
6938;BME280;40040;42.706;23.372;2023-03-20T03:16:42;144907.63;;;2.93;100.00
6938;BME280;40040;42.706;23.372;2023-03-20T03:19:14;144900.22;;;2.90;100.00
6938;BME280;40040;42.706;23.372;2023-03-20T03:21:44;144912.47;;;2.95;100.00
6938;BME280;40040;42.706;23.372;2023-03-20T03:24:24;144912.47;;;2.95;100.00
6938;BME280;40040;42.706;23.372;2023-03-20T03:26:55;144900.22;;;2.90;100.00
6938;BME280;40040;42.706;23.372;2023-03-20T03:29:22;144919.88;;;2.98;100.00
6938;BME280;40040;42.706;23.372;2023-03-20T03:31:51;144905.13;;;2.92;100.00
6938;BME280;40040;42.706;23.372;2023-03-20T03:34:21;144905.13;;;2.92;100.00
6938;BME280;40040;42.706;23.372;2023-03-20T03:36:52;144910.03;;;2.94;100.00
6938;BME280;40040;42.706;23.372;2023-03-20T03:39:26;144900.22;;;2.90;100.00
6938;BME280;40040;42.706;23.372;2023-03-20T03:42:04;144919.88;;;2.98;100.00
6938;BME280;40040;42.706;23.372;2023-03-20T03:44:36;144918.63;;;2.97;100.00
6938;BME280;40040;42.706;23.372;2023-03-20T03:47:10;144869.56;;;2.77;100.00
6938;BME280;40040;42.706;23.372;2023-03-20T03:49:42;144865.91;;;2.76;100.00
6938;BME280;40040;42.706;23.372;2023-03-20T03:52:15;144911.28;;;2.94;100.00
6938;BME280;40040;42.706;23.372;2023-03-20T03:54:46;144910.03;;;2.94;100.00
6938;BME280;40040;42.706;23.372;2023-03-20T03:57:18;144890.44;;;2.86;100.00
6938;BME280;40040;42.706;23.372;2023-03-20T03:59:49;144895.31;;;2.88;100.00
6938;BME280;40040;42.706;23.372;2023-03-20T04:02:19;144892.88;;;2.87;100.00
6938;BME280;40040;42.706;23.372;2023-03-20T04:04:50;144878.16;;;2.81;100.00
6938;BME280;40040;42.706;23.372;2023-03-20T04:07:19;144899.03;;;2.89;100.00
6938;BME280;40040;42.706;23.372;2023-03-20T04:09:47;144892.88;;;2.87;100.00
6938;BME280;40040;42.706;23.372;2023-03-20T04:12:33;144873.28;;;2.79;100.00
6938;BME280;40040;42.706;23.372;2023-03-20T04:15:00;144804.63;;;2.51;100.00
6938;BME280;40040;42.706;23.372;2023-03-20T04:17:27;144842.63;;;2.66;100.00
6938;BME280;40040;42.706;23.372;2023-03-20T04:19:54;144787.47;;;2.44;100.00
6938;BME280;40040;42.706;23.372;2023-03-20T04:22:21;144856.13;;;2.72;100.00
6938;BME280;40040;42.706;23.372;2023-03-20T04:24:50;144853.66;;;2.71;100.00
6938;BME280;40040;42.706;23.372;2023-03-20T04:27:17;144835.28;;;2.63;100.00
6938;BME280;40040;42.706;23.372;2023-03-20T04:29:44;144811.97;;;2.54;100.00
6938;BME280;40040;42.706;23.372;2023-03-20T04:32:11;144826.72;;;2.60;100.00
6938;BME280;40040;42.706;23.372;2023-03-20T04:34:38;144808.31;;;2.52;100.00
6938;BME280;40040;42.706;23.372;2023-03-20T04:37:05;144814.41;;;2.55;100.00
6938;BME280;40040;42.706;23.372;2023-03-20T04:39:33;144819.31;;;2.57;100.00
6938;BME280;40040;42.706;23.372;2023-03-20T04:42:03;144829.13;;;2.61;100.00
6938;BME280;40040;42.706;23.372;2023-03-20T04:44:30;144819.31;;;2.57;100.00
6938;BME280;40040;42.706;23.372;2023-03-20T04:46:57;144834.06;;;2.63;100.00
6938;BME280;40040;42.706;23.372;2023-03-20T04:49:24;144846.31;;;2.68;100.00
6938;BME280;40040;42.706;23.372;2023-03-20T04:51:51;144808.31;;;2.52;100.00
6938;BME280;40040;42.706;23.372;2023-03-20T04:54:18;144811.97;;;2.54;100.00
6938;BME280;40040;42.706;23.372;2023-03-20T04:56:46;144837.72;;;2.64;100.00
6938;BME280;40040;42.706;23.372;2023-03-20T04:59:14;144845.06;;;2.67;100.00
6938;BME280;40040;42.706;23.372;2023-03-20T05:01:41;144856.13;;;2.72;100.00
6938;BME280;40040;42.706;23.372;2023-03-20T05:04:08;144876.97;;;2.80;100.00
6938;BME280;40040;42.706;23.372;2023-03-20T05:06:34;144873.28;;;2.79;100.00
6938;BME280;40040;42.706;23.372;2023-03-20T05:09:01;144894.13;;;2.87;100.00
6938;BME280;40040;42.706;23.372;2023-03-20T05:11:28;144848.72;;;2.69;100.00
6938;BME280;40040;42.706;23.372;2023-03-20T05:13:55;144928.44;;;3.01;100.00
6938;BME280;40040;42.706;23.372;2023-03-20T05:16:23;144938.22;;;3.05;100.00
6938;BME280;40040;42.706;23.372;2023-03-20T05:18:50;144949.28;;;3.10;100.00
6938;BME280;40040;42.706;23.372;2023-03-20T05:21:17;144977.47;;;3.21;100.00
6938;BME280;40040;42.706;23.372;2023-03-20T05:23:44;144972.56;;;3.19;100.00
6938;BME280;40040;42.706;23.372;2023-03-20T05:26:10;145005.66;;;3.33;100.00
6938;BME280;40040;42.706;23.372;2023-03-20T05:28:37;145017.97;;;3.38;100.00
6938;BME280;40040;42.706;23.372;2023-03-20T05:31:05;145037.56;;;3.46;100.00
6938;BME280;40040;42.706;23.372;2023-03-20T05:33:33;145040.00;;;3.47;100.00
6938;BME280;40040;42.706;23.372;2023-03-20T05:36:00;145043.72;;;3.49;100.00
6938;BME280;40040;42.706;23.372;2023-03-20T05:38:27;145063.34;;;3.57;100.00
6938;BME280;40040;42.706;23.372;2023-03-20T05:40:57;145084.19;;;3.65;100.00
6938;BME280;40040;42.706;23.372;2023-03-20T05:43:25;145107.53;;;3.75;100.00
6938;BME280;40040;42.706;23.372;2023-03-20T05:45:53;145124.69;;;3.82;100.00
6938;BME280;40040;42.706;23.372;2023-03-20T05:48:20;145062.09;;;3.56;100.00
6938;BME280;40040;42.706;23.372;2023-03-20T05:50:49;145112.38;;;3.77;100.00
6938;BME280;40040;42.706;23.372;2023-03-20T05:53:15;145157.81;;;3.95;100.00
6938;BME280;40040;42.706;23.372;2023-03-20T05:55:42;145147.97;;;3.91;100.00
6938;BME280;40040;42.706;23.372;2023-03-20T05:58:10;145199.53;;;4.12;100.00
6938;BME280;40040;42.706;23.372;2023-03-20T06:00:38;145221.63;;;4.21;100.00
6938;BME280;40040;42.706;23.372;2023-03-20T06:03:05;145238.81;;;4.28;100.00
6938;BME280;40040;42.706;23.372;2023-03-20T06:05:32;145258.44;;;4.36;100.00
6938;BME280;40040;42.706;23.372;2023-03-20T06:08:01;145258.44;;;4.36;100.00
6938;BME280;40040;42.706;23.372;2023-03-20T06:10:28;145322.28;;;4.63;100.00
6938;BME280;40040;42.706;23.372;2023-03-20T06:12:55;145354.22;;;4.76;100.00
6938;BME280;40040;42.706;23.372;2023-03-20T06:15:25;145282.97;;;4.46;100.00
6938;BME280;40040;42.706;23.372;2023-03-20T06:17:52;145418.06;;;5.02;100.00
6938;BME280;40040;42.706;23.372;2023-03-20T06:20:19;145447.53;;;5.14;100.00
6938;BME280;40040;42.706;23.372;2023-03-20T06:22:46;145484.38;;;5.29;100.00
6938;BME280;40040;42.706;23.372;2023-03-20T06:25:15;145508.94;;;5.39;100.00
6938;BME280;40040;42.706;23.372;2023-03-20T06:27:42;145418.06;;;5.02;100.00
6938;BME280;40040;42.706;23.372;2023-03-20T06:30:10;145502.81;;;5.36;97.91
6938;BME280;40040;42.706;23.372;2023-03-20T06:32:37;145567.97;;;5.63;97.24
6938;BME280;40040;42.706;23.372;2023-03-20T06:35:05;145534.75;;;5.49;97.01
6938;BME280;40040;42.706;23.372;2023-03-20T06:37:32;145625.75;;;5.87;97.22
6938;BME280;40040;42.706;23.372;2023-03-20T06:39:58;145661.41;;;6.01;95.59
6938;BME280;40040;42.706;23.372;2023-03-20T06:42:27;145710.56;;;6.21;93.83
6938;BME280;40040;42.706;23.372;2023-03-20T06:44:53;145749.91;;;6.37;92.86
6938;BME280;40040;42.706;23.372;2023-03-20T06:47:20;145799.06;;;6.57;92.42
6938;BME280;40040;42.706;23.372;2023-03-20T06:49:48;145843.38;;;6.75;90.32
6938;BME280;40040;42.706;23.372;2023-03-20T06:52:16;145882.75;;;6.92;89.77
6938;BME280;40040;42.706;23.372;2023-03-20T06:54:44;145915.94;;;7.05;85.96
6938;BME280;40040;42.706;23.372;2023-03-20T06:57:12;145902.41;;;7.00;86.17
6938;BME280;40040;42.706;23.372;2023-03-20T06:59:40;145909.78;;;7.03;87.43
6938;BME280;40040;42.706;23.372;2023-03-20T07:02:08;145915.94;;;7.05;86.86
6938;BME280;40040;42.706;23.372;2023-03-20T07:04:36;145944.22;;;7.17;86.62
6938;BME280;40040;42.706;23.372;2023-03-20T07:07:03;145995.91;;;7.38;87.94
6938;BME280;40040;42.706;23.372;2023-03-20T07:09:29;146050.09;;;7.60;85.41
6938;BME280;40040;42.706;23.372;2023-03-20T07:11:57;146074.69;;;7.70;83.22
6938;BME280;40040;42.706;23.372;2023-03-20T07:14:24;146159.63;;;8.05;80.69
6938;BME280;40040;42.706;23.372;2023-03-20T07:16:52;146175.63;;;8.11;80.77
6938;BME280;40040;42.706;23.372;2023-03-20T07:19:20;146212.66;;;8.26;78.71
6938;BME280;40040;42.706;23.372;2023-03-20T07:21:48;146201.50;;;8.22;77.80
6938;BME280;40040;42.706;23.372;2023-03-20T07:24:14;146232.34;;;8.34;78.13
6938;BME280;40040;42.706;23.372;2023-03-20T07:26:42;146279.13;;;8.53;78.74
6938;BME280;40040;42.706;23.372;2023-03-20T07:29:09;146332.13;;;8.75;77.21
6938;BME280;40040;42.706;23.372;2023-03-20T07:31:36;146375.25;;;8.92;77.05
6938;BME280;40040;42.706;23.372;2023-03-20T07:34:04;146399.88;;;9.02;75.60
6938;BME280;40040;42.706;23.372;2023-03-20T07:36:31;146430.69;;;9.15;75.08
6938;BME280;40040;42.706;23.372;2023-03-20T07:38:57;146467.66;;;9.30;73.88
6938;BME280;40040;42.706;23.372;2023-03-20T07:41:24;146528.06;;;9.55;72.18
6938;BME280;40040;42.706;23.372;2023-03-20T07:43:51;146576.16;;;9.74;71.09
6938;BME280;40040;42.706;23.372;2023-03-20T07:46:18;146600.78;;;9.84;69.72
6938;BME280;40040;42.706;23.372;2023-03-20T07:48:45;146648.91;;;10.04;69.55
6938;BME280;40040;42.706;23.372;2023-03-20T07:51:13;146725.41;;;10.35;67.87
6938;BME280;40040;42.706;23.372;2023-03-20T07:53:40;146764.91;;;10.51;65.84
6938;BME280;40040;42.706;23.372;2023-03-20T07:56:07;146794.50;;;10.63;65.60
6938;BME280;40040;42.706;23.372;2023-03-20T07:58:35;146784.63;;;10.59;65.33
6938;BME280;40040;42.706;23.372;2023-03-20T08:01:02;146863.56;;;10.91;65.12
6938;BME280;40040;42.706;23.372;2023-03-20T08:03:29;146906.75;;;11.09;64.43
6938;BME280;40040;42.706;23.372;2023-03-20T08:05:56;146937.63;;;11.21;62.92
6938;BME280;40040;42.706;23.372;2023-03-20T08:08:24;146964.78;;;11.32;63.69
6938;BME280;40040;42.706;23.372;2023-03-20T08:10:51;147003.06;;;11.48;62.92
6938;BME280;40040;42.706;23.372;2023-03-20T08:13:18;147038.88;;;11.63;64.11
6938;BME280;40040;42.706;23.372;2023-03-20T08:15:46;146991.97;;;11.44;62.32
6938;BME280;40040;42.706;23.372;2023-03-20T08:18:13;147036.38;;;11.62;62.42
6938;BME280;40040;42.706;23.372;2023-03-20T08:20:40;147051.28;;;11.68;62.85
6938;BME280;40040;42.706;23.372;2023-03-20T08:23:06;147095.69;;;11.86;62.09
6938;BME280;40040;42.706;23.372;2023-03-20T08:25:35;147145.13;;;12.06;62.41
6938;BME280;40040;42.706;23.372;2023-03-20T08:28:02;147241.47;;;12.45;61.97
6938;BME280;40040;42.706;23.372;2023-03-20T08:30:29;147355.19;;;12.91;60.24
6938;BME280;40040;42.706;23.372;2023-03-20T08:32:56;147431.84;;;13.22;59.75
6938;BME280;40040;42.706;23.372;2023-03-20T08:35:23;147491.19;;;13.46;57.92
6938;BME280;40040;42.706;23.372;2023-03-20T08:37:50;147544.38;;;13.68;56.68
6938;BME280;40040;42.706;23.372;2023-03-20T08:40:17;147583.97;;;13.84;56.60
6938;BME280;40040;42.706;23.372;2023-03-20T08:42:45;147600.03;;;13.91;56.33
6938;BME280;40040;42.706;23.372;2023-03-20T08:45:12;147590.13;;;13.87;56.81
6938;BME280;40040;42.706;23.372;2023-03-20T08:47:39;147675.47;;;14.21;55.90
6938;BME280;40040;42.706;23.372;2023-03-20T08:50:07;147726.25;;;14.42;54.94
6938;BME280;40040;42.706;23.372;2023-03-20T08:52:34;147717.59;;;14.38;54.91
6938;BME280;40040;42.706;23.372;2023-03-20T08:55:01;147778.22;;;14.63;54.60
6938;BME280;40040;42.706;23.372;2023-03-20T08:57:28;147866.13;;;14.99;53.32
6938;BME280;40040;42.706;23.372;2023-03-20T08:59:56;147873.56;;;15.02;53.13
6938;BME280;40040;42.706;23.372;2023-03-20T09:02:23;147958.97;;;15.36;50.75
6938;BME280;40040;42.706;23.372;2023-03-20T09:04:50;147983.78;;;15.46;50.82
6938;BME280;40040;42.706;23.372;2023-03-20T09:07:17;148043.25;;;15.70;50.09
6938;BME280;40040;42.706;23.372;2023-03-20T09:09:44;148154.75;;;16.16;48.44
6938;BME280;40040;42.706;23.372;2023-03-20T09:12:10;148225.34;;;16.44;47.70
6938;BME280;40040;42.706;23.372;2023-03-20T09:14:38;148309.69;;;16.78;46.93
6938;BME280;40040;42.706;23.372;2023-03-20T09:17:06;148459.72;;;17.39;45.84
6938;BME280;40040;42.706;23.372;2023-03-20T09:19:34;148372.91;;;17.04;42.69
6938;BME280;40040;42.706;23.372;2023-03-20T09:22:03;148504.38;;;17.57;42.40
6938;BME280;40040;42.706;23.372;2023-03-20T09:24:30;148594.94;;;17.94;40.53
6938;BME280;40040;42.706;23.372;2023-03-20T09:26:58;148665.66;;;18.23;41.02
6938;BME280;40040;42.706;23.372;2023-03-20T09:29:25;148727.78;;;18.48;40.54
6938;BME280;40040;42.706;23.372;2023-03-20T09:31:52;148836.97;;;18.92;40.56
6938;BME280;40040;42.706;23.372;2023-03-20T09:34:20;148986.06;;;19.52;40.08
6938;BME280;40040;42.706;23.372;2023-03-20T09:36:48;149020.84;;;19.66;40.42
6938;BME280;40040;42.706;23.372;2023-03-20T09:39:16;148956.25;;;19.40;40.44
6938;BME280;40040;42.706;23.372;2023-03-20T09:41:47;148856.88;;;19.00;40.46
6938;BME280;40040;42.706;23.372;2023-03-20T09:44:17;148640.84;;;18.13;41.70
6938;BME280;40040;42.706;23.372;2023-03-20T09:47:06;148623.50;;;18.06;43.53
6938;BME280;40040;42.706;23.372;2023-03-20T09:49:43;148649.53;;;18.16;41.32
6938;BME280;40040;42.706;23.372;2023-03-20T09:52:20;148596.19;;;17.94;42.89
6938;BME280;40040;42.706;23.372;2023-03-20T09:54:50;148616.06;;;18.03;42.29
6938;BME280;40040;42.706;23.372;2023-03-20T09:57:21;148777.41;;;18.68;41.35
6938;BME280;40040;42.706;23.372;2023-03-20T09:59:53;148946.31;;;19.36;40.47
6938;BME280;40040;42.706;23.372;2023-03-20T10:02:28;148968.66;;;19.45;40.14
6938;BME280;40040;42.706;23.372;2023-03-20T10:05:02;148984.81;;;19.52;40.19
6938;BME280;40040;42.706;23.372;2023-03-20T10:07:31;149125.16;;;20.08;39.83
6938;BME280;40040;42.706;23.372;2023-03-20T10:09:58;149254.44;;;20.61;38.64
6938;BME280;40040;42.706;23.372;2023-03-20T10:12:44;149351.47;;;21.00;38.79
6938;BME280;40040;42.706;23.372;2023-03-20T10:15:19;149454.66;;;21.42;36.84
6938;BME280;40040;42.706;23.372;2023-03-20T10:17:55;149545.50;;;21.78;36.10
6938;BME280;40040;42.706;23.372;2023-03-20T10:20:32;149612.69;;;22.05;36.18
6938;BME280;40040;42.706;23.372;2023-03-20T10:23:05;149472.06;;;21.49;36.58
6938;BME280;40040;42.706;23.372;2023-03-20T10:25:34;149488.22;;;21.55;36.63
6938;BME280;40040;42.706;23.372;2023-03-20T10:28:05;149533.00;;;21.73;36.16
6938;BME280;40040;42.706;23.372;2023-03-20T10:30:57;149597.75;;;21.99;35.93
6938;BME280;40040;42.706;23.372;2023-03-20T10:33:37;149717.19;;;22.48;35.25
6938;BME280;40040;42.706;23.372;2023-03-20T10:36:22;149796.91;;;22.80;34.78
6938;BME280;40040;42.706;23.372;2023-03-20T10:38:55;149963.75;;;23.47;33.68
6938;BME280;40040;42.706;23.372;2023-03-20T10:41:28;150079.56;;;23.94;31.97
6938;BME280;40040;42.706;23.372;2023-03-20T10:43:58;150154.38;;;24.24;31.95
6938;BME280;40040;42.706;23.372;2023-03-20T10:46:28;150200.53;;;24.42;31.94
6938;BME280;40040;42.706;23.372;2023-03-20T10:48:59;150262.78;;;24.68;32.29
6938;BME280;40040;42.706;23.372;2023-03-20T10:51:44;150426.13;;;25.33;30.53
6938;BME280;40040;42.706;23.372;2023-03-20T10:54:21;150387.47;;;25.18;30.97
6938;BME280;40040;42.706;23.372;2023-03-20T10:56:51;150392.47;;;25.20;30.47
6938;BME280;40040;42.706;23.372;2023-03-20T10:59:23;150422.38;;;25.32;29.46
6938;BME280;40040;42.706;23.372;2023-03-20T11:01:51;150457.34;;;25.46;29.36
6938;BME280;40040;42.706;23.372;2023-03-20T11:04:18;150517.19;;;25.70;29.59
6938;BME280;40040;42.706;23.372;2023-03-20T11:06:50;150554.63;;;25.85;29.60
6938;BME280;40040;42.706;23.372;2023-03-20T11:09:21;150595.78;;;26.02;28.78
6938;BME280;40040;42.706;23.372;2023-03-20T11:11:53;150471.06;;;25.51;29.99
6938;BME280;40040;42.706;23.372;2023-03-20T11:14:23;150427.38;;;25.34;30.20
6938;BME280;40040;42.706;23.372;2023-03-20T11:16:51;150322.66;;;24.92;29.72
6938;BME280;40040;42.706;23.372;2023-03-20T11:19:20;150138.19;;;24.17;31.06
6938;BME280;40040;42.706;23.372;2023-03-20T11:21:50;150002.34;;;23.63;31.37
6938;BME280;40040;42.706;23.372;2023-03-20T11:24:26;150040.97;;;23.78;31.50
6938;BME280;40040;42.706;23.372;2023-03-20T11:27:05;150003.63;;;23.63;31.96
6938;BME280;40040;42.706;23.372;2023-03-20T11:29:32;150036.03;;;23.76;31.30
6938;BME280;40040;42.706;23.372;2023-03-20T11:32:05;150122.00;;;24.11;31.58
6938;BME280;40040;42.706;23.372;2023-03-20T11:34:36;150131.94;;;24.15;31.69
6938;BME280;40040;42.706;23.372;2023-03-20T11:37:21;150150.66;;;24.22;30.80
6938;BME280;40040;42.706;23.372;2023-03-20T11:39:58;150203.00;;;24.43;31.09
6938;BME280;40040;42.706;23.372;2023-03-20T11:42:27;150322.66;;;24.92;30.25
6938;BME280;40040;42.706;23.372;2023-03-20T11:44:59;150401.19;;;25.23;29.53
6938;BME280;40040;42.706;23.372;2023-03-20T11:47:28;150542.16;;;25.80;29.46
6938;BME280;40040;42.706;23.372;2023-03-20T11:49:59;150676.88;;;26.34;28.76
6938;BME280;40040;42.706;23.372;2023-03-20T11:52:30;150600.81;;;26.04;28.31
6938;BME280;40040;42.706;23.372;2023-03-20T11:55:22;150632.00;;;26.16;28.48
6938;BME280;40040;42.706;23.372;2023-03-20T11:58:22;150709.34;;;26.47;27.09
6938;BME280;40040;42.706;23.372;2023-03-20T12:01:28;150821.69;;;26.93;27.04
6938;BME280;40040;42.706;23.372;2023-03-20T12:04:31;150864.13;;;27.10;25.83
6938;BME280;40040;42.706;23.372;2023-03-20T12:07:02;150922.88;;;27.33;26.17
6938;BME280;40040;42.706;23.372;2023-03-20T12:09:39;150951.56;;;27.45;24.97
6938;BME280;40040;42.706;23.372;2023-03-20T12:12:14;150999.00;;;27.64;23.98
6938;BME280;40040;42.706;23.372;2023-03-20T12:14:50;150995.25;;;27.62;24.15
6938;BME280;40040;42.706;23.372;2023-03-20T12:17:31;150987.78;;;27.59;23.37
6938;BME280;40040;42.706;23.372;2023-03-20T12:20:05;150969.03;;;27.52;26.30
6938;BME280;40040;42.706;23.372;2023-03-20T12:22:35;150969.03;;;27.52;25.12
6938;BME280;40040;42.706;23.372;2023-03-20T12:25:17;150989.00;;;27.60;23.59
6938;BME280;40040;42.706;23.372;2023-03-20T12:27:52;151057.72;;;27.88;23.07
6938;BME280;40040;42.706;23.372;2023-03-20T12:30:27;151076.47;;;27.95;22.55
6938;BME280;40040;42.706;23.372;2023-03-20T12:33:00;150959.03;;;27.48;22.82
6938;BME280;40040;42.706;23.372;2023-03-20T12:35:30;150934.09;;;27.38;22.89
6938;BME280;40040;42.706;23.372;2023-03-20T12:37:57;150869.13;;;27.12;23.91
6938;BME280;40040;42.706;23.372;2023-03-20T12:40:40;150881.59;;;27.17;24.87
6938;BME280;40040;42.706;23.372;2023-03-20T12:43:12;150861.66;;;27.09;24.55
6938;BME280;40040;42.706;23.372;2023-03-20T12:45:45;150822.97;;;26.93;22.96
6938;BME280;40040;42.706;23.372;2023-03-20T12:48:40;150709.34;;;26.47;22.94
6938;BME280;40040;42.706;23.372;2023-03-20T12:51:15;150673.16;;;26.33;23.83
6938;BME280;40040;42.706;23.372;2023-03-20T12:53:56;150679.41;;;26.35;22.91
6938;BME280;40040;42.706;23.372;2023-03-20T12:56:36;150589.56;;;25.99;22.71
6938;BME280;40040;42.706;23.372;2023-03-20T12:59:14;150452.34;;;25.44;24.46
6938;BME280;40040;42.706;23.372;2023-03-20T13:01:46;150265.31;;;24.69;23.72
6938;BME280;40040;42.706;23.372;2023-03-20T13:04:42;150203.00;;;24.43;25.27
6938;BME280;40040;42.706;23.372;2023-03-20T13:07:17;150171.81;;;24.31;24.74
6938;BME280;40040;42.706;23.372;2023-03-20T13:10:11;150148.19;;;24.21;24.56
6938;BME280;40040;42.706;23.372;2023-03-20T13:12:53;150158.13;;;24.25;24.94
6938;BME280;40040;42.706;23.372;2023-03-20T13:15:33;150085.81;;;23.96;24.87
6938;BME280;40040;42.706;23.372;2023-03-20T13:18:11;150060.91;;;23.86;25.38
6938;BME280;40040;42.706;23.372;2023-03-20T13:20:45;149996.16;;;23.60;25.79